createdAt,value
2022-07-25T00:02:00.949Z,14.33
2022-07-25T00:04:06.005Z,14.07
2022-07-25T00:06:11.510Z,15.00
2022-07-25T00:08:21.102Z,13.67
2022-07-25T00:10:24.822Z,14.10
2022-07-25T00:12:28.463Z,14.70
2022-07-25T00:14:33.382Z,15.47
2022-07-25T00:16:37.032Z,14.87
2022-07-25T00:18:40.693Z,13.93
2022-07-25T00:20:44.220Z,14.20
2022-07-25T00:22:47.944Z,13.93
2022-07-25T00:24:51.493Z,14.07
2022-07-25T00:26:55.160Z,15.73
2022-07-25T00:28:58.975Z,14.57
2022-07-25T00:31:04.062Z,15.13
2022-07-25T00:33:07.680Z,15.57
2022-07-25T00:35:11.591Z,16.30
2022-07-25T00:37:15.131Z,15.80
2022-07-25T00:39:18.723Z,15.40
2022-07-25T00:41:22.427Z,15.60
2022-07-25T00:43:25.917Z,15.60
2022-07-25T00:45:29.791Z,16.33
2022-07-25T00:47:34.704Z,15.70
2022-07-25T00:49:38.603Z,15.53
2022-07-25T00:51:42.234Z,15.57
2022-07-25T00:53:46.842Z,17.20
2022-07-25T00:55:50.695Z,15.60
2022-07-25T00:57:54.157Z,15.00
2022-07-25T00:59:57.809Z,14.17
2022-07-25T01:02:03.859Z,14.70
2022-07-25T01:04:09.492Z,14.93
2022-07-25T01:06:13.152Z,15.10
2022-07-25T01:08:16.750Z,15.67
2022-07-25T01:10:20.260Z,13.77
2022-07-25T01:12:23.953Z,14.63
2022-07-25T01:14:27.604Z,13.50
2022-07-25T01:16:31.220Z,16.27
2022-07-25T01:18:35.018Z,15.77
2022-07-25T01:20:40.090Z,15.10
2022-07-25T01:22:43.613Z,14.50
2022-07-25T01:24:47.076Z,14.73
2022-07-25T01:26:50.856Z,14.27
2022-07-25T01:28:55.002Z,16.27
2022-07-25T01:30:58.899Z,15.53
2022-07-25T01:33:07.137Z,15.70
2022-07-25T01:35:11.556Z,16.53
2022-07-25T01:37:16.545Z,13.23
2022-07-25T01:39:20.175Z,13.93
2022-07-25T01:41:23.695Z,16.30
2022-07-25T01:43:27.220Z,15.37
2022-07-25T01:45:31.070Z,14.63
2022-07-25T01:47:34.604Z,14.50
2022-07-25T01:49:38.209Z,13.97
2022-07-25T01:51:41.735Z,15.40
2022-07-25T01:53:46.584Z,15.53
2022-07-25T01:55:51.171Z,14.33
2022-07-25T01:57:55.768Z,15.53
2022-07-25T02:00:00.275Z,15.17
2022-07-25T02:02:03.954Z,15.23
2022-07-25T02:04:07.954Z,16.93
2022-07-25T02:06:11.821Z,14.50
2022-07-25T02:08:15.377Z,16.53
2022-07-25T02:10:22.071Z,14.20
2022-07-25T02:12:25.591Z,16.40
2022-07-25T02:14:29.303Z,17.00
2022-07-25T02:16:32.844Z,15.90
2022-07-25T02:18:36.429Z,15.53
2022-07-25T02:20:39.999Z,15.57
2022-07-25T02:22:43.549Z,15.23
2022-07-25T02:24:47.060Z,15.30
2022-07-25T02:26:52.054Z,15.17
2022-07-25T02:28:55.554Z,15.23
2022-07-25T02:30:59.402Z,16.10
2022-07-25T02:33:03.058Z,16.33
2022-07-25T02:35:13.010Z,16.67
2022-07-25T02:37:17.005Z,16.10
2022-07-25T02:39:21.256Z,15.47
2022-07-25T02:41:24.829Z,16.70
2022-07-25T02:43:29.786Z,14.97
2022-07-25T02:45:33.442Z,16.67
2022-07-25T02:47:37.825Z,15.10
2022-07-25T02:49:41.795Z,16.23
2022-07-25T02:51:45.275Z,16.10
2022-07-25T02:53:58.295Z,15.27
2022-07-25T02:56:02.180Z,16.10
2022-07-25T02:58:05.796Z,16.13
2022-07-25T03:00:11.590Z,16.13
2022-07-25T03:02:15.128Z,15.70
2022-07-25T03:04:18.797Z,15.77
2022-07-25T03:06:23.550Z,16.37
2022-07-25T03:08:27.181Z,16.07
2022-07-25T03:10:31.285Z,16.07
2022-07-25T03:12:34.919Z,16.07
2022-07-25T03:14:38.696Z,15.90
2022-07-25T03:16:43.664Z,19.17
2022-07-25T03:18:47.257Z,15.80
2022-07-25T03:20:50.775Z,16.23
2022-07-25T03:22:54.289Z,15.47
2022-07-25T03:24:57.851Z,17.13
2022-07-25T03:27:01.356Z,17.30
2022-07-25T03:29:04.968Z,16.33
2022-07-25T03:31:08.685Z,16.63
2022-07-25T03:33:13.654Z,16.33
2022-07-25T03:35:17.252Z,16.57
2022-07-25T03:37:20.908Z,15.20
2022-07-25T03:39:24.729Z,15.67
2022-07-25T03:41:28.377Z,15.70
2022-07-25T03:43:32.947Z,15.50
2022-07-25T03:45:36.486Z,16.03
2022-07-25T03:47:40.032Z,17.63
2022-07-25T03:49:44.716Z,15.97
2022-07-25T03:51:48.296Z,17.37
2022-07-25T03:54:05.194Z,15.20
2022-07-25T03:56:09.666Z,15.53
2022-07-25T03:58:13.220Z,16.50
2022-07-25T04:00:17.712Z,16.77
2022-07-25T04:02:21.601Z,15.43
2022-07-25T04:04:25.191Z,15.93
2022-07-25T04:06:30.215Z,15.73
2022-07-25T04:08:33.749Z,15.90
2022-07-25T04:10:37.679Z,16.50
2022-07-25T04:12:41.331Z,16.20
2022-07-25T04:14:44.536Z,15.67
2022-07-25T04:16:47.855Z,15.13
2022-07-25T04:18:51.986Z,16.90
2022-07-25T04:20:55.171Z,15.80
2022-07-25T04:23:00.162Z,15.10
2022-07-25T04:25:03.394Z,14.80
2022-07-25T04:27:06.618Z,15.47
2022-07-25T04:29:10.297Z,15.20
2022-07-25T04:31:13.555Z,15.57
2022-07-25T04:33:16.774Z,16.50
2022-07-25T04:35:20.426Z,16.63
2022-07-25T04:37:24.006Z,16.53
2022-07-25T04:39:29.085Z,17.90
2022-07-25T04:41:32.741Z,15.90
2022-07-25T04:43:36.231Z,15.70
2022-07-25T04:45:39.760Z,17.50
2022-07-25T04:47:43.947Z,15.53
2022-07-25T04:49:47.498Z,16.67
2022-07-25T04:51:51.334Z,16.43
2022-07-25T04:53:54.911Z,16.20
2022-07-25T04:56:00.039Z,17.07
2022-07-25T04:58:03.705Z,17.07
2022-07-25T05:00:08.289Z,15.13
2022-07-25T05:02:11.873Z,16.20
2022-07-25T05:04:15.413Z,17.10
2022-07-25T05:06:19.044Z,16.10
2022-07-25T05:08:22.613Z,17.77
2022-07-25T05:10:26.213Z,17.10
2022-07-25T05:12:31.444Z,16.20
2022-07-25T05:14:34.956Z,14.30
2022-07-25T05:16:38.613Z,13.00
2022-07-25T05:18:42.980Z,14.83
2022-07-25T05:20:46.589Z,14.90
2022-07-25T05:22:50.677Z,17.07
2022-07-25T05:24:54.233Z,15.90
2022-07-25T05:26:57.858Z,16.33
2022-07-25T05:29:02.738Z,14.97
2022-07-25T05:31:06.101Z,16.03
2022-07-25T05:33:09.347Z,15.87
2022-07-25T05:35:12.932Z,15.30
2022-07-25T05:37:16.116Z,13.80
2022-07-25T05:39:19.636Z,14.10
2022-07-25T05:41:22.931Z,14.33
2022-07-25T05:43:26.165Z,14.93
2022-07-25T05:45:31.198Z,14.57
2022-07-25T05:47:34.700Z,14.40
2022-07-25T05:49:38.396Z,13.80
2022-07-25T05:51:41.772Z,14.00
2022-07-25T05:53:45.338Z,14.07
2022-07-25T05:55:48.855Z,13.07
2022-07-25T05:57:52.237Z,13.63
2022-07-25T05:59:55.584Z,12.90
2022-07-25T06:02:00.588Z,12.90
2022-07-25T06:04:04.474Z,13.30
2022-07-25T06:06:09.476Z,13.50
2022-07-25T06:08:13.480Z,11.93
2022-07-25T06:10:17.077Z,13.60
2022-07-25T06:12:20.848Z,11.00
2022-07-25T06:14:27.572Z,12.47
2022-07-25T06:16:31.723Z,11.63
2022-07-25T06:18:36.747Z,12.33
2022-07-25T06:20:40.316Z,12.30
2022-07-25T06:22:44.636Z,12.27
2022-07-25T06:24:48.184Z,12.50
2022-07-25T06:26:51.695Z,10.50
2022-07-25T06:28:54.941Z,11.47
2022-07-25T06:30:58.789Z,11.03
2022-07-25T06:33:02.664Z,13.23
2022-07-25T06:35:08.388Z,11.63
2022-07-25T06:37:11.894Z,10.80
2022-07-25T06:39:15.604Z,10.67
2022-07-25T06:41:19.228Z,11.13
2022-07-25T06:43:22.951Z,10.30
2022-07-25T06:45:26.911Z,9.53
2022-07-25T06:47:35.503Z,10.00
2022-07-25T06:49:39.452Z,9.63
2022-07-25T06:51:44.085Z,10.20
2022-07-25T06:53:47.578Z,9.40
2022-07-25T06:55:51.182Z,9.63
2022-07-25T06:57:54.732Z,9.53
2022-07-25T06:59:58.254Z,9.50
2022-07-25T07:02:02.307Z,9.40
2022-07-25T07:04:06.261Z,9.13
2022-07-25T07:06:10.461Z,8.60
2022-07-25T07:08:15.224Z,8.97
2022-07-25T07:10:20.102Z,9.00
2022-07-25T07:12:23.615Z,8.93
2022-07-25T07:14:27.086Z,8.00
2022-07-25T07:16:31.077Z,9.00
2022-07-25T07:18:34.877Z,8.70
2022-07-25T07:20:38.364Z,8.13
2022-07-25T07:22:45.890Z,8.60
2022-07-25T07:24:50.826Z,8.80
2022-07-25T07:26:56.013Z,7.83
2022-07-25T07:28:59.585Z,9.23
2022-07-25T07:31:16.114Z,8.70
2022-07-25T07:33:20.523Z,7.07
2022-07-25T07:35:25.449Z,8.60
2022-07-25T07:37:36.598Z,8.30
2022-07-25T07:39:42.306Z,8.00
2022-07-25T07:41:47.292Z,7.70
2022-07-25T07:43:50.874Z,7.87
2022-07-25T07:45:56.119Z,8.77
2022-07-25T07:47:59.586Z,8.07
2022-07-25T07:50:03.264Z,8.43
2022-07-25T07:52:06.863Z,7.37
2022-07-25T07:54:28.015Z,7.27
2022-07-25T07:56:31.912Z,7.30
2022-07-25T07:58:37.920Z,7.20
2022-07-25T08:00:41.240Z,7.37
2022-07-25T08:02:45.915Z,7.10
2022-07-25T08:04:49.494Z,6.40
2022-07-25T08:06:53.076Z,6.67
2022-07-25T08:08:56.613Z,6.60
2022-07-25T08:11:00.168Z,7.00
2022-07-25T08:13:04.799Z,6.43
2022-07-25T08:15:10.746Z,7.30
2022-07-25T08:17:14.794Z,7.20
2022-07-25T08:19:18.863Z,7.20
2022-07-25T08:21:22.482Z,6.97
2022-07-25T08:23:27.811Z,7.33
2022-07-25T08:25:31.427Z,7.37
2022-07-25T08:27:35.696Z,6.57
2022-07-25T08:29:40.907Z,6.53
2022-07-25T08:31:45.893Z,6.73
2022-07-25T08:33:49.405Z,6.83
2022-07-25T08:35:54.726Z,6.83
2022-07-25T08:37:59.194Z,6.63
2022-07-25T08:40:02.735Z,5.43
2022-07-25T08:42:10.850Z,6.57
2022-07-25T08:44:15.297Z,6.90
2022-07-25T08:46:19.083Z,7.10
2022-07-25T08:48:24.810Z,6.90
2022-07-25T08:50:29.423Z,6.30
2022-07-25T08:52:35.263Z,5.83
2022-07-25T08:54:39.058Z,6.50
2022-07-25T08:56:42.944Z,7.10
2022-07-25T08:58:47.244Z,6.53
2022-07-25T09:00:50.838Z,6.40
2022-07-25T09:02:55.646Z,6.40
2022-07-25T09:05:01.145Z,6.47
2022-07-25T09:07:08.200Z,7.50
2022-07-25T09:09:11.865Z,7.20
2022-07-25T09:11:15.393Z,6.40
2022-07-25T09:13:19.778Z,5.90
2022-07-25T09:15:27.307Z,6.60
2022-07-25T09:17:33.218Z,6.00
2022-07-25T09:19:36.813Z,6.20
2022-07-25T09:21:42.046Z,6.20
2022-07-25T09:23:45.843Z,6.37
2022-07-25T09:25:49.427Z,6.00
2022-07-25T09:27:53.060Z,6.67
2022-07-25T09:29:56.694Z,5.93
2022-07-25T09:32:00.796Z,6.13
2022-07-25T09:34:08.388Z,6.00
2022-07-25T09:36:13.521Z,6.03
2022-07-25T09:38:18.796Z,6.30
2022-07-25T09:40:22.066Z,6.20
2022-07-25T09:42:27.851Z,5.73
2022-07-25T09:44:31.377Z,5.40
2022-07-25T09:46:35.009Z,6.00
2022-07-25T09:48:40.605Z,5.67
2022-07-25T09:50:44.542Z,5.40
2022-07-25T09:52:48.905Z,5.83
2022-07-25T09:54:54.808Z,6.90
2022-07-25T09:56:58.365Z,5.60
2022-07-25T09:59:01.957Z,5.90
2022-07-25T10:01:07.638Z,5.83
2022-07-25T10:03:17.391Z,6.37
2022-07-25T10:05:27.864Z,5.77
2022-07-25T10:07:31.797Z,5.70
2022-07-25T10:09:35.686Z,5.80
2022-07-25T10:11:40.556Z,6.57
2022-07-25T10:13:44.083Z,5.83
2022-07-25T10:15:49.461Z,7.00
2022-07-25T10:18:03.901Z,6.60
2022-07-25T10:20:08.550Z,6.90
2022-07-25T10:22:12.594Z,6.67
2022-07-25T10:24:16.124Z,7.10
2022-07-25T10:26:19.732Z,6.63
2022-07-25T10:28:24.571Z,7.03
2022-07-25T10:30:29.228Z,7.07
2022-07-25T10:32:35.669Z,6.33
2022-07-25T10:34:39.842Z,6.67
2022-07-25T10:36:46.261Z,6.33
2022-07-25T10:38:52.419Z,7.10
2022-07-25T10:40:55.950Z,6.73
2022-07-25T10:43:03.666Z,6.57
2022-07-25T10:45:10.001Z,6.23
2022-07-25T10:47:15.255Z,6.27
2022-07-25T10:49:23.664Z,6.20
2022-07-25T10:51:38.326Z,6.73
2022-07-25T10:53:46.955Z,7.00
2022-07-25T10:56:05.761Z,6.50
2022-07-25T10:58:18.266Z,6.50
2022-07-25T11:00:23.981Z,7.20
2022-07-25T11:02:28.697Z,7.10
2022-07-25T11:04:32.519Z,7.10
2022-07-25T11:06:36.970Z,7.40
2022-07-25T11:08:40.989Z,7.77
2022-07-25T11:10:52.357Z,7.10
2022-07-25T11:12:56.368Z,7.57
2022-07-25T11:15:02.594Z,8.50
2022-07-25T11:17:15.859Z,7.63
2022-07-25T11:19:20.499Z,7.47
2022-07-25T11:21:25.391Z,7.27
2022-07-25T11:23:28.930Z,7.50
2022-07-25T11:25:32.498Z,7.20
2022-07-25T11:27:36.114Z,7.57
2022-07-25T11:29:39.767Z,7.60
2022-07-25T11:31:43.467Z,7.70
2022-07-25T11:33:50.468Z,7.90
2022-07-25T11:35:54.043Z,7.70
2022-07-25T11:37:58.161Z,7.50
2022-07-25T11:40:01.728Z,6.90
2022-07-25T11:42:06.159Z,8.60
2022-07-25T11:44:09.838Z,7.93
2022-07-25T11:46:14.083Z,8.50
2022-07-25T11:48:19.734Z,8.00
2022-07-25T11:50:30.896Z,7.90
2022-07-25T11:52:35.286Z,7.73
2022-07-25T11:54:38.838Z,6.47
2022-07-25T11:56:43.953Z,7.53
2022-07-25T11:58:58.983Z,7.87
2022-07-25T12:01:02.558Z,8.00
2022-07-25T12:03:08.747Z,7.70
2022-07-25T12:05:13.841Z,7.97
2022-07-25T12:07:18.801Z,8.03
2022-07-25T12:09:23.076Z,8.50
2022-07-25T12:11:26.614Z,7.60
2022-07-25T12:13:31.158Z,8.60
2022-07-25T12:15:36.072Z,8.50
2022-07-25T12:17:39.719Z,10.10
2022-07-25T12:19:47.181Z,9.80
2022-07-25T12:21:50.697Z,8.20
2022-07-25T12:23:56.296Z,9.00
2022-07-25T12:25:59.893Z,7.93
2022-07-25T12:28:03.363Z,9.03
2022-07-25T12:30:08.069Z,8.40
2022-07-25T12:32:11.588Z,8.70
2022-07-25T12:34:15.239Z,9.43
2022-07-25T12:36:18.756Z,8.80
2022-07-25T12:38:22.325Z,8.13
2022-07-25T12:40:27.645Z,8.33
2022-07-25T12:42:31.215Z,8.37
2022-07-25T12:44:35.118Z,7.73
2022-07-25T12:46:40.369Z,8.60
2022-07-25T12:48:44.407Z,8.97
2022-07-25T12:50:48.027Z,9.57
2022-07-25T12:52:51.522Z,8.43
2022-07-25T12:54:55.466Z,9.00
2022-07-25T12:57:00.414Z,8.10
2022-07-25T12:59:04.675Z,8.97
2022-07-25T13:01:08.524Z,9.10
2022-07-25T13:03:12.245Z,9.93
2022-07-25T13:05:15.650Z,7.83
2022-07-25T13:07:19.212Z,8.40
2022-07-25T13:09:22.997Z,8.30
2022-07-25T13:11:26.528Z,8.37
2022-07-25T13:13:31.489Z,9.43
2022-07-25T13:15:37.005Z,9.37
2022-07-25T13:17:41.202Z,8.53
2022-07-25T13:19:44.713Z,7.90
2022-07-25T13:21:47.909Z,9.10
2022-07-25T13:23:51.193Z,9.07
2022-07-25T13:25:54.402Z,7.70
2022-07-25T13:27:58.344Z,9.50
2022-07-25T13:30:03.323Z,8.20
2022-07-25T13:32:07.298Z,8.33
2022-07-25T13:34:11.204Z,9.30
2022-07-25T13:36:15.021Z,8.10
2022-07-25T13:38:18.213Z,8.13
2022-07-25T13:40:21.996Z,8.40
2022-07-25T13:42:25.573Z,9.53
2022-07-25T13:44:29.238Z,8.23
2022-07-25T13:46:35.306Z,7.83
2022-07-25T13:48:39.034Z,8.70
2022-07-25T13:50:42.636Z,8.60
2022-07-25T13:52:46.156Z,8.50
2022-07-25T13:54:49.415Z,8.23
2022-07-25T13:56:52.943Z,7.20
2022-07-25T13:58:56.203Z,8.47
2022-07-25T14:00:59.630Z,7.30
2022-07-25T14:03:04.788Z,8.40
2022-07-25T14:05:08.706Z,8.40
2022-07-25T14:07:12.212Z,8.30
2022-07-25T14:09:15.797Z,8.47
2022-07-25T14:11:19.382Z,8.70
2022-07-25T14:13:22.933Z,7.90
2022-07-25T14:15:26.820Z,8.20
2022-07-25T14:17:30.751Z,8.00
2022-07-25T14:19:36.013Z,7.10
2022-07-25T14:21:39.549Z,7.73
2022-07-25T14:23:43.610Z,7.33
2022-07-25T14:25:47.266Z,7.80
2022-07-25T14:27:50.748Z,7.00
2022-07-25T14:29:55.041Z,7.63
2022-07-25T14:31:59.077Z,7.37
2022-07-25T14:34:02.664Z,7.77
2022-07-25T14:36:08.040Z,7.70
2022-07-25T14:38:11.661Z,8.50
2022-07-25T14:40:15.853Z,8.30
2022-07-25T14:42:19.397Z,8.60
2022-07-25T14:44:23.051Z,7.50
2022-07-25T14:46:27.020Z,7.17
2022-07-25T14:48:30.595Z,7.60
2022-07-25T14:50:34.193Z,7.90
2022-07-25T14:52:39.178Z,8.30
2022-07-25T14:54:42.821Z,6.77
2022-07-25T14:56:46.942Z,8.50
2022-07-25T14:58:50.507Z,7.40
2022-07-25T15:00:54.095Z,7.10
2022-07-25T15:02:57.710Z,8.73
2022-07-25T15:05:01.329Z,7.20
2022-07-25T15:07:05.070Z,7.97
2022-07-25T15:09:10.491Z,7.90
2022-07-25T15:11:14.285Z,8.13
2022-07-25T15:13:30.866Z,7.77
2022-07-25T15:15:35.967Z,8.77
2022-07-25T15:17:39.874Z,8.03
2022-07-25T15:19:43.311Z,8.33
2022-07-25T15:21:47.182Z,8.13
2022-07-25T15:23:52.188Z,8.10
2022-07-25T15:26:01.194Z,9.10
2022-07-25T15:28:06.174Z,7.70
2022-07-25T15:30:10.113Z,9.23
2022-07-25T15:32:13.652Z,8.90
2022-07-25T15:34:17.308Z,7.77
2022-07-25T15:36:24.481Z,9.50
2022-07-25T15:38:30.891Z,8.57
2022-07-25T15:40:34.379Z,8.40
2022-07-25T15:42:39.971Z,7.83
2022-07-25T15:44:43.555Z,8.90
2022-07-25T15:46:47.610Z,8.53
2022-07-25T15:48:51.248Z,8.40
2022-07-25T15:50:56.245Z,8.10
2022-07-25T15:52:59.892Z,8.60
2022-07-25T15:55:03.420Z,8.57
2022-07-25T15:57:08.242Z,9.17
2022-07-25T15:59:13.255Z,8.60
2022-07-25T16:01:17.058Z,8.20
2022-07-25T16:03:21.588Z,9.10
2022-07-25T16:05:25.153Z,8.90
2022-07-25T16:07:30.046Z,10.50
2022-07-25T16:09:33.629Z,8.93
2022-07-25T16:11:38.322Z,8.10
2022-07-25T16:13:41.975Z,8.87
2022-07-25T16:15:47.058Z,9.30
2022-07-25T16:17:51.763Z,9.07
2022-07-25T16:19:55.462Z,8.90
2022-07-25T16:21:58.988Z,9.33
2022-07-25T16:24:02.492Z,9.80
2022-07-25T16:26:06.057Z,8.93
2022-07-25T16:28:10.284Z,9.20
2022-07-25T16:30:14.425Z,9.00
2022-07-25T16:32:19.369Z,10.33
2022-07-25T16:34:28.659Z,9.50
2022-07-25T16:36:32.690Z,8.53
2022-07-25T16:38:36.536Z,10.17
2022-07-25T16:40:40.306Z,9.30
2022-07-25T16:42:44.287Z,9.33
2022-07-25T16:44:48.982Z,10.73
2022-07-25T16:46:52.573Z,7.90
2022-07-25T16:48:57.958Z,9.10
2022-07-25T16:51:02.404Z,10.33
2022-07-25T16:53:05.978Z,9.90
2022-07-25T16:55:09.977Z,10.00
2022-07-25T16:57:13.692Z,10.43
2022-07-25T16:59:17.790Z,9.40
2022-07-25T17:01:21.396Z,10.70
2022-07-25T17:03:24.924Z,9.53
2022-07-25T17:05:30.096Z,9.60
2022-07-25T17:07:33.872Z,9.80
2022-07-25T17:09:37.480Z,9.07
2022-07-25T17:11:41.001Z,10.50
2022-07-25T17:13:44.649Z,10.60
2022-07-25T17:15:48.416Z,9.43
2022-07-25T17:17:52.029Z,10.23
2022-07-25T17:19:59.869Z,10.93
2022-07-25T17:22:05.154Z,10.33
2022-07-25T17:24:09.300Z,10.20
2022-07-25T17:26:13.047Z,9.93
2022-07-25T17:28:16.707Z,11.20
2022-07-25T17:30:20.488Z,10.90
2022-07-25T17:32:29.363Z,10.13
2022-07-25T17:34:33.687Z,10.07
2022-07-25T17:36:37.411Z,11.23
2022-07-25T17:38:43.086Z,11.57
2022-07-25T17:40:46.753Z,12.10
2022-07-25T17:42:50.232Z,10.60
2022-07-25T17:44:54.224Z,10.87
2022-07-25T17:46:58.034Z,10.50
2022-07-25T17:49:01.682Z,10.20
2022-07-25T17:51:06.122Z,10.53
2022-07-25T17:53:09.630Z,11.30
2022-07-25T17:55:14.505Z,11.60
2022-07-25T17:57:18.918Z,11.73
2022-07-25T17:59:22.393Z,12.50
2022-07-25T18:01:26.213Z,11.67
2022-07-25T18:03:29.859Z,11.80
2022-07-25T18:05:33.819Z,12.17
2022-07-25T18:07:39.323Z,11.77
2022-07-25T18:09:42.842Z,13.50
2022-07-25T18:11:47.757Z,13.40
2022-07-25T18:13:51.239Z,13.50
2022-07-25T18:15:54.811Z,13.50
2022-07-25T18:17:58.605Z,12.60
2022-07-25T18:20:02.160Z,12.20
2022-07-25T18:22:06.056Z,11.70
2022-07-25T18:24:10.248Z,11.83
2022-07-25T18:26:14.091Z,11.80
2022-07-25T18:28:19.017Z,11.23
2022-07-25T18:30:25.966Z,13.47
2022-07-25T18:32:32.493Z,11.60
2022-07-25T18:34:36.640Z,11.63
2022-07-25T18:36:40.152Z,11.20
2022-07-25T18:38:43.679Z,11.33
2022-07-25T18:40:47.234Z,11.83
2022-07-25T18:42:50.797Z,12.27
2022-07-25T18:44:56.257Z,12.90
2022-07-25T18:47:00.452Z,13.60
2022-07-25T18:49:04.113Z,11.20
2022-07-25T18:51:07.883Z,11.67
2022-07-25T18:53:11.564Z,12.80
2022-07-25T18:55:15.433Z,13.80
2022-07-25T18:57:19.014Z,11.93
2022-07-25T18:59:24.076Z,11.47
2022-07-25T19:01:30.378Z,12.20
2022-07-25T19:03:34.919Z,11.30
2022-07-25T19:05:38.678Z,13.37
2022-07-25T19:07:42.477Z,11.90
2022-07-25T19:09:46.191Z,12.27
2022-07-25T19:11:49.652Z,11.67
2022-07-25T19:13:53.179Z,12.80
2022-07-25T19:15:56.797Z,12.10
2022-07-25T19:18:02.122Z,12.17
2022-07-25T19:20:06.515Z,12.60
2022-07-25T19:22:10.286Z,10.77
2022-07-25T19:24:13.774Z,11.50
2022-07-25T19:26:17.678Z,14.87
2022-07-25T19:28:21.257Z,14.20
2022-07-25T19:30:24.733Z,12.20
2022-07-25T19:32:28.644Z,17.17
2022-07-25T19:34:33.674Z,25.53
2022-07-25T19:36:37.182Z,20.60
2022-07-25T19:38:41.130Z,17.70
2022-07-25T19:40:44.660Z,18.33
2022-07-25T19:42:48.178Z,16.37
2022-07-25T19:44:52.123Z,14.57
2022-07-25T19:46:55.783Z,13.10
2022-07-25T19:48:59.596Z,12.87
2022-07-25T19:51:04.588Z,12.40
2022-07-25T19:53:09.027Z,13.27
2022-07-25T19:55:12.618Z,11.97
2022-07-25T19:57:16.174Z,13.17
2022-07-25T19:59:20.028Z,12.83
2022-07-25T20:01:23.640Z,11.57
2022-07-25T20:03:27.170Z,11.70
2022-07-25T20:05:30.760Z,11.73
2022-07-25T20:07:35.803Z,11.70
2022-07-25T20:09:39.518Z,11.73
2022-07-25T20:11:43.238Z,11.60
2022-07-25T20:13:46.786Z,11.73
2022-07-25T20:15:50.410Z,11.40
2022-07-25T20:17:53.943Z,10.37
2022-07-25T20:19:57.508Z,11.47
2022-07-25T20:22:01.797Z,11.10
2022-07-25T20:24:07.110Z,12.83
2022-07-25T20:26:10.678Z,11.50
2022-07-25T20:28:14.369Z,11.90
2022-07-25T20:30:18.884Z,13.27
2022-07-25T20:32:22.508Z,11.90
2022-07-25T20:34:26.029Z,13.57
2022-07-25T20:36:29.872Z,12.90
2022-07-25T20:38:33.508Z,13.67
2022-07-25T20:40:38.851Z,13.90
2022-07-25T20:42:42.605Z,13.93
2022-07-25T20:44:46.358Z,14.37
2022-07-25T20:46:51.565Z,12.50
2022-07-25T20:48:55.163Z,12.80
2022-07-25T20:50:58.728Z,12.70
2022-07-25T20:53:02.586Z,14.43
2022-07-25T20:55:08.091Z,14.10
2022-07-25T20:57:13.999Z,12.90
2022-07-25T20:59:17.626Z,13.10
2022-07-25T21:01:21.327Z,12.20
2022-07-25T21:03:24.889Z,12.70
2022-07-25T21:05:28.806Z,12.67
2022-07-25T21:07:32.743Z,12.33
2022-07-25T21:09:36.301Z,13.80
2022-07-25T21:11:39.921Z,13.10
2022-07-25T21:13:44.864Z,14.10
2022-07-25T21:15:48.741Z,13.47
2022-07-25T21:17:52.764Z,13.33
2022-07-25T21:19:56.298Z,14.10
2022-07-25T21:21:59.900Z,14.33
2022-07-25T21:24:03.389Z,15.10
2022-07-25T21:26:07.075Z,14.97
2022-07-25T21:28:10.867Z,14.27
2022-07-25T21:30:16.279Z,14.80
2022-07-25T21:32:21.319Z,15.10
2022-07-25T21:34:25.120Z,15.57
2022-07-25T21:36:28.716Z,14.43
2022-07-25T21:38:34.855Z,15.07
2022-07-25T21:40:38.681Z,15.27
2022-07-25T21:42:42.231Z,17.80
2022-07-25T21:44:46.483Z,17.10
2022-07-25T21:46:51.444Z,17.80
2022-07-25T21:49:13.217Z,18.07
2022-07-25T21:51:19.167Z,15.80
2022-07-25T21:53:26.781Z,16.30
2022-07-25T21:55:30.364Z,16.93
2022-07-25T21:57:34.040Z,16.70
2022-07-25T21:59:37.587Z,16.17
2022-07-25T22:01:41.231Z,15.67
2022-07-25T22:03:46.234Z,17.23
2022-07-25T22:05:49.841Z,16.77
2022-07-25T22:07:53.343Z,16.00
2022-07-25T22:09:56.885Z,15.40
2022-07-25T22:12:01.142Z,17.20
2022-07-25T22:14:04.974Z,16.93
2022-07-25T22:16:09.363Z,16.03
2022-07-25T22:18:13.907Z,16.90
2022-07-25T22:20:19.189Z,16.90
2022-07-25T22:22:22.746Z,15.93
2022-07-25T22:24:26.307Z,17.50
2022-07-25T22:26:29.823Z,16.37
2022-07-25T22:28:33.375Z,17.80
2022-07-25T22:30:36.918Z,17.87
2022-07-25T22:32:40.558Z,17.70
2022-07-25T22:34:44.414Z,18.47
2022-07-25T22:36:49.319Z,17.03
2022-07-25T22:38:53.069Z,15.60
2022-07-25T22:40:56.736Z,16.07
2022-07-25T22:43:00.222Z,16.50
2022-07-25T22:45:03.793Z,16.70
2022-07-25T22:47:07.427Z,16.87
2022-07-25T22:49:11.660Z,17.83
2022-07-25T22:51:15.816Z,16.90
2022-07-25T22:53:20.693Z,17.20
2022-07-25T22:55:24.564Z,17.13
2022-07-25T22:57:29.787Z,17.67
2022-07-25T22:59:40.496Z,18.37
2022-07-25T23:01:44.378Z,18.10
2022-07-25T23:03:49.962Z,17.93
2022-07-25T23:05:53.861Z,16.97
2022-07-25T23:07:57.514Z,19.57
2022-07-25T23:10:02.597Z,18.37
2022-07-25T23:12:06.353Z,17.93
2022-07-25T23:14:09.871Z,16.37
2022-07-25T23:16:13.754Z,17.37
2022-07-25T23:18:17.385Z,16.40
2022-07-25T23:20:20.909Z,17.30
2022-07-25T23:22:25.313Z,16.37
2022-07-25T23:24:28.887Z,16.73
2022-07-25T23:26:33.862Z,15.83
2022-07-25T23:28:37.479Z,14.97
2022-07-25T23:30:41.327Z,15.43
2022-07-25T23:32:45.193Z,14.97
2022-07-25T23:34:48.929Z,14.87
2022-07-25T23:36:52.996Z,14.30
2022-07-25T23:38:56.520Z,15.23
2022-07-25T23:41:00.002Z,16.00
2022-07-25T23:43:05.036Z,13.33
2022-07-25T23:45:08.896Z,13.40
2022-07-25T23:47:14.021Z,12.60
2022-07-25T23:49:17.655Z,12.60
2022-07-25T23:51:21.472Z,12.40
2022-07-25T23:53:24.802Z,10.23
2022-07-25T23:55:28.155Z,9.53
2022-07-25T23:57:31.652Z,8.90
2022-07-25T23:59:36.457Z,8.93
